CDT,Max TemperatureF,Mean TemperatureF,Min TemperatureF,Max Dew PointF,MeanDew PointF,Min DewpointF,Max Humidity, Mean Humidity, Min Humidity, Max Sea Level PressureIn, Mean Sea Level PressureIn, Min Sea Level PressureIn, Max VisibilityMiles, Mean VisibilityMiles, Min VisibilityMiles, Max Wind SpeedMPH, Mean Wind SpeedMPH, Max Gust SpeedMPH,PrecipitationIn, CloudCover, Events, WindDirDegrees
2013-3-1,37,34,32,29,28,26,85,76,67,30.19,30.15,30.11,10,10,10,10,5,20,0.00,8,,323
2013-3-2,35,31,26,28,25,21,93,77,61,30.27,30.22,30.16,10,9,3,12,7,18,0.00,7,Snow,335
2013-3-3,45,34,23,29,24,21,96,69,40,30.26,30.17,30.07,10,10,8,8,3,,0.00,1,,191
2013-3-4,62,48,34,49,37,25,75,54,39,30.06,29.85,29.75,10,10,10,28,14,34,0.00,3,,174
2013-3-5,59,48,36,55,41,25,100,78,42,30.21,29.95,29.76,10,9,2,22,14,37,0.27,5,Rain,295
2013-3-6,44,38,32,30,26,22,82,67,53,30.38,30.32,30.22,10,10,10,14,8,23,0.00,3,,351
2013-3-7,51,42,32,34,30,28,89,70,48,30.41,30.34,30.29,10,10,10,8,3,,0.00,0,,31
2013-3-8,60,47,34,41,32,26,82,56,27,30.40,30.28,30.17,10,10,9,8,3,,0.00,0,,56
2013-3-9,69,58,48,42,37,33,66,47,31,30.16,30.03,29.91,10,10,10,23,7,29,0.00,2,,164
2013-3-10,64,56,46,57,51,39,100,86,55,29.93,29.82,29.78,10,8,1,29,14,38,0.77,6,Rain,189
2013-3-11,46,42,37,39,33,30,82,73,58,30.05,29.93,29.86,10,10,10,10,7,18,0.00,7,,272
2013-3-12,54,42,30,37,30,26,100,66,39,30.23,30.16,30.06,10,10,5,8,2,,0.00,1,,306
2013-3-13,48,42,36,35,28,26,79,61,41,30.43,30.38,30.25,10,10,10,14,5,22,0.00,1,,338
2013-3-14,60,44,30,38,32,26,92,63,38,30.43,30.31,30.17,10,10,10,15,5,22,0.00,0,,177
2013-3-15,75,60,44,52,45,37,79,58,40,30.15,30.00,29.88,10,10,10,17,10,26,0.00,0,,202
2013-3-16,75,64,53,54,51,46,83,66,48,29.92,29.86,29.81,10,10,7,15,10,22,0.00,0,,200
2013-3-17,66,56,48,54,47,43,90,80,61,29.91,29.83,29.67,10,6,4,15,6,20,0.00,6,,26
2013-3-18,66,54,42,55,47,41,100,90,68,30.06,29.79,29.67,10,7,2,15,7,24,0.15,6,Rain-Thunderstorm,339
2013-3-19,55,28,0,39,32,0,100,75,33,30.21,30.12,30.04,10,7,1,12,3,17,0.00,1,,21
2013-3-20,54,43,32,34,27,15,88,54,33,30.26,30.18,30.10,10,10,10,13,6,23,0.00,1,,340
2013-3-21,48,38,28,32,20,10,96,55,23,30.14,30.05,29.96,10,9,2,13,6,,0.12,5,Rain-Snow,63
2013-3-22,46,40,33,45,40,32,96,92,87,29.98,29.93,29.88,10,7,2,13,9,,0.38,8,Rain,91
2013-3-23,55,50,46,50,46,43,96,89,76,29.91,29.83,29.68,10,8,4,13,7,,0.30,8,Rain,64
2013-3-24,50,44,36,49,42,25,100,87,62,29.99,29.67,29.56,10,5,0,20,8,34,0.06,8,Fog-Rain-Thunderstorm,285
2013-3-25,39,36,32,26,24,22,69,62,53,30.28,30.13,30.00,10,10,10,17,11,28,0.00,7,,309
2013-3-26,46,38,30,30,26,23,82,64,45,30.39,30.35,30.27,10,10,10,12,8,17,0.00,2,,315
2013-3-27,55,42,28,34,29,25,88,63,38,30.43,30.36,30.30,10,10,10,8,3,,0.00,0,,194
2013-3-28,66,51,36,40,36,31,82,56,37,30.35,30.28,30.22,10,8,0,12,4,,0.00,1,,169
2013-3-29,60,54,48,52,47,37,94,82,46,30.27,30.20,30.17,10,8,2,15,5,,0.26,7,Rain,154
2013-3-30,57,54,50,56,52,48,100,94,88,30.18,30.06,29.93,10,6,0,12,5,,0.40,7,Fog-Rain,131
2013-3-31,62,57,51,56,54,50,100,95,72,29.99,29.92,29.86,10,4,0,12,5,20,0.03,6,Fog-Rain,186